sensor_id;sensor_type;location;lat;lon;timestamp;P1;durP1;ratioP1;P2;durP2;ratioP2
47481;SDS011;33219;47.410;9.730;2023-01-15T00:01:35;1.77;;;1.07;;
47481;SDS011;33219;47.410;9.730;2023-01-15T00:04:04;1.82;;;0.90;;
47481;SDS011;33219;47.410;9.730;2023-01-15T00:06:36;2.27;;;1.30;;
47481;SDS011;33219;47.410;9.730;2023-01-15T00:09:06;2.05;;;1.05;;
47481;SDS011;33219;47.410;9.730;2023-01-15T00:11:34;2.02;;;0.90;;
47481;SDS011;33219;47.410;9.730;2023-01-15T00:14:02;2.12;;;0.90;;
47481;SDS011;33219;47.410;9.730;2023-01-15T00:16:30;2.70;;;1.12;;
47481;SDS011;33219;47.410;9.730;2023-01-15T00:18:58;2.40;;;1.00;;
47481;SDS011;33219;47.410;9.730;2023-01-15T00:21:28;1.42;;;0.82;;
47481;SDS011;33219;47.410;9.730;2023-01-15T00:23:56;2.00;;;0.72;;
47481;SDS011;33219;47.410;9.730;2023-01-15T00:26:42;1.98;;;1.10;;
47481;SDS011;33219;47.410;9.730;2023-01-15T00:29:28;1.77;;;1.10;;
47481;SDS011;33219;47.410;9.730;2023-01-15T00:31:58;2.52;;;1.50;;
47481;SDS011;33219;47.410;9.730;2023-01-15T00:34:31;1.50;;;0.90;;
47481;SDS011;33219;47.410;9.730;2023-01-15T00:36:59;1.47;;;1.00;;
47481;SDS011;33219;47.410;9.730;2023-01-15T00:39:27;1.60;;;1.00;;
47481;SDS011;33219;47.410;9.730;2023-01-15T00:41:55;2.37;;;1.22;;
47481;SDS011;33219;47.410;9.730;2023-01-15T00:44:22;2.00;;;1.32;;
47481;SDS011;33219;47.410;9.730;2023-01-15T00:46:50;2.35;;;1.55;;
47481;SDS011;33219;47.410;9.730;2023-01-15T00:49:18;3.30;;;2.00;;
47481;SDS011;33219;47.410;9.730;2023-01-15T00:51:46;5.58;;;2.30;;
47481;SDS011;33219;47.410;9.730;2023-01-15T00:54:14;4.30;;;1.90;;
47481;SDS011;33219;47.410;9.730;2023-01-15T00:56:42;3.05;;;2.00;;
47481;SDS011;33219;47.410;9.730;2023-01-15T00:59:10;3.20;;;1.75;;
47481;SDS011;33219;47.410;9.730;2023-01-15T01:01:38;3.62;;;1.90;;
47481;SDS011;33219;47.410;9.730;2023-01-15T01:04:06;4.28;;;2.02;;
47481;SDS011;33219;47.410;9.730;2023-01-15T01:06:33;3.12;;;1.90;;
47481;SDS011;33219;47.410;9.730;2023-01-15T01:09:05;4.08;;;1.98;;
47481;SDS011;33219;47.410;9.730;2023-01-15T01:11:33;3.90;;;2.40;;
47481;SDS011;33219;47.410;9.730;2023-01-15T01:14:02;7.67;;;4.03;;
47481;SDS011;33219;47.410;9.730;2023-01-15T01:16:31;3.02;;;1.70;;
47481;SDS011;33219;47.410;9.730;2023-01-15T01:19:13;1.95;;;1.17;;
47481;SDS011;33219;47.410;9.730;2023-01-15T01:21:41;2.33;;;1.40;;
47481;SDS011;33219;47.410;9.730;2023-01-15T01:24:09;2.20;;;1.20;;
47481;SDS011;33219;47.410;9.730;2023-01-15T01:26:38;1.22;;;0.88;;
47481;SDS011;33219;47.410;9.730;2023-01-15T01:29:10;1.50;;;1.00;;
47481;SDS011;33219;47.410;9.730;2023-01-15T01:31:38;2.40;;;1.47;;
47481;SDS011;33219;47.410;9.730;2023-01-15T01:34:06;3.58;;;1.12;;
47481;SDS011;33219;47.410;9.730;2023-01-15T01:36:35;2.70;;;1.10;;
47481;SDS011;33219;47.410;9.730;2023-01-15T01:39:05;2.47;;;1.40;;
47481;SDS011;33219;47.410;9.730;2023-01-15T01:41:33;3.87;;;1.47;;
47481;SDS011;33219;47.410;9.730;2023-01-15T01:44:02;4.70;;;1.77;;
47481;SDS011;33219;47.410;9.730;2023-01-15T01:46:32;1.98;;;1.05;;
47481;SDS011;33219;47.410;9.730;2023-01-15T01:49:08;2.72;;;1.22;;
47481;SDS011;33219;47.410;9.730;2023-01-15T01:51:38;2.90;;;1.45;;
47481;SDS011;33219;47.410;9.730;2023-01-15T01:54:11;1.77;;;1.20;;
47481;SDS011;33219;47.410;9.730;2023-01-15T01:56:41;3.40;;;1.50;;
47481;SDS011;33219;47.410;9.730;2023-01-15T01:59:09;1.70;;;1.07;;
47481;SDS011;33219;47.410;9.730;2023-01-15T02:01:38;1.60;;;0.75;;
47481;SDS011;33219;47.410;9.730;2023-01-15T02:04:05;1.15;;;0.70;;
47481;SDS011;33219;47.410;9.730;2023-01-15T02:06:36;0.78;;;0.70;;
47481;SDS011;33219;47.410;9.730;2023-01-15T02:09:07;1.62;;;0.82;;
47481;SDS011;33219;47.410;9.730;2023-01-15T02:11:35;2.22;;;0.78;;
47481;SDS011;33219;47.410;9.730;2023-01-15T02:14:18;1.37;;;1.00;;
47481;SDS011;33219;47.410;9.730;2023-01-15T02:16:52;1.55;;;0.80;;
47481;SDS011;33219;47.410;9.730;2023-01-15T02:27:29;1.22;;;0.80;;
47481;SDS011;33219;47.410;9.730;2023-01-15T02:32:35;2.25;;;0.93;;
47481;SDS011;33219;47.410;9.730;2023-01-15T02:37:48;1.50;;;0.93;;
47481;SDS011;33219;47.410;9.730;2023-01-15T02:40:18;1.35;;;0.80;;
47481;SDS011;33219;47.410;9.730;2023-01-15T02:42:48;2.45;;;0.80;;
47481;SDS011;33219;47.410;9.730;2023-01-15T02:45:16;0.88;;;0.70;;
47481;SDS011;33219;47.410;9.730;2023-01-15T02:47:52;1.07;;;0.70;;
47481;SDS011;33219;47.410;9.730;2023-01-15T02:50:23;1.55;;;0.90;;
47481;SDS011;33219;47.410;9.730;2023-01-15T02:52:53;1.10;;;0.80;;
47481;SDS011;33219;47.410;9.730;2023-01-15T02:55:27;2.50;;;1.00;;
47481;SDS011;33219;47.410;9.730;2023-01-15T02:57:58;2.22;;;0.80;;
47481;SDS011;33219;47.410;9.730;2023-01-15T03:00:28;2.27;;;1.00;;
47481;SDS011;33219;47.410;9.730;2023-01-15T03:02:58;2.15;;;1.00;;
47481;SDS011;33219;47.410;9.730;2023-01-15T03:05:30;1.47;;;0.95;;
47481;SDS011;33219;47.410;9.730;2023-01-15T03:07:59;1.80;;;1.10;;
47481;SDS011;33219;47.410;9.730;2023-01-15T03:10:47;1.20;;;0.85;;
47481;SDS011;33219;47.410;9.730;2023-01-15T03:13:28;1.20;;;0.90;;
47481;SDS011;33219;47.410;9.730;2023-01-15T03:19:11;1.57;;;1.00;;
47481;SDS011;33219;47.410;9.730;2023-01-15T03:24:37;2.33;;;1.12;;
47481;SDS011;33219;47.410;9.730;2023-01-15T03:27:14;3.65;;;1.17;;
47481;SDS011;33219;47.410;9.730;2023-01-15T03:29:42;5.05;;;1.82;;
47481;SDS011;33219;47.410;9.730;2023-01-15T03:32:13;2.30;;;1.00;;
47481;SDS011;33219;47.410;9.730;2023-01-15T03:37:12;1.70;;;1.27;;
47481;SDS011;33219;47.410;9.730;2023-01-15T03:39:40;2.12;;;1.27;;
47481;SDS011;33219;47.410;9.730;2023-01-15T03:42:11;2.17;;;0.95;;
47481;SDS011;33219;47.410;9.730;2023-01-15T03:49:55;2.52;;;1.12;;
47481;SDS011;33219;47.410;9.730;2023-01-15T03:52:36;2.37;;;1.02;;
47481;SDS011;33219;47.410;9.730;2023-01-15T03:55:21;1.47;;;1.00;;
47481;SDS011;33219;47.410;9.730;2023-01-15T03:57:56;1.10;;;0.90;;
47481;SDS011;33219;47.410;9.730;2023-01-15T04:00:34;2.05;;;0.90;;
47481;SDS011;33219;47.410;9.730;2023-01-15T04:03:03;1.45;;;0.90;;
47481;SDS011;33219;47.410;9.730;2023-01-15T04:05:34;2.12;;;0.80;;
47481;SDS011;33219;47.410;9.730;2023-01-15T04:08:04;2.17;;;1.10;;
47481;SDS011;33219;47.410;9.730;2023-01-15T04:10:32;1.37;;;0.78;;
47481;SDS011;33219;47.410;9.730;2023-01-15T04:13:00;1.32;;;0.80;;
47481;SDS011;33219;47.410;9.730;2023-01-15T04:15:27;2.05;;;0.82;;
47481;SDS011;33219;47.410;9.730;2023-01-15T04:17:55;2.22;;;0.90;;
47481;SDS011;33219;47.410;9.730;2023-01-15T04:20:23;1.82;;;0.85;;
47481;SDS011;33219;47.410;9.730;2023-01-15T04:22:50;1.90;;;1.10;;
47481;SDS011;33219;47.410;9.730;2023-01-15T04:25:18;2.58;;;1.00;;
47481;SDS011;33219;47.410;9.730;2023-01-15T04:27:45;1.85;;;0.75;;
47481;SDS011;33219;47.410;9.730;2023-01-15T04:30:14;1.35;;;0.80;;
47481;SDS011;33219;47.410;9.730;2023-01-15T04:32:42;1.47;;;0.60;;
47481;SDS011;33219;47.410;9.730;2023-01-15T04:35:09;1.32;;;0.70;;
47481;SDS011;33219;47.410;9.730;2023-01-15T04:37:37;1.90;;;0.93;;
47481;SDS011;33219;47.410;9.730;2023-01-15T04:40:05;1.87;;;1.20;;
47481;SDS011;33219;47.410;9.730;2023-01-15T04:42:33;1.77;;;1.00;;
47481;SDS011;33219;47.410;9.730;2023-01-15T04:45:19;1.98;;;0.95;;
47481;SDS011;33219;47.410;9.730;2023-01-15T04:47:46;1.92;;;1.10;;
47481;SDS011;33219;47.410;9.730;2023-01-15T04:50:14;1.25;;;0.98;;
47481;SDS011;33219;47.410;9.730;2023-01-15T04:52:42;1.52;;;1.12;;
47481;SDS011;33219;47.410;9.730;2023-01-15T04:55:10;1.32;;;0.90;;
47481;SDS011;33219;47.410;9.730;2023-01-15T04:57:37;1.80;;;0.90;;
47481;SDS011;33219;47.410;9.730;2023-01-15T05:00:05;1.42;;;0.88;;
47481;SDS011;33219;47.410;9.730;2023-01-15T05:02:33;1.47;;;1.00;;
47481;SDS011;33219;47.410;9.730;2023-01-15T05:05:01;1.40;;;0.80;;
47481;SDS011;33219;47.410;9.730;2023-01-15T05:07:29;2.72;;;1.10;;
47481;SDS011;33219;47.410;9.730;2023-01-15T05:09:56;3.27;;;1.10;;
47481;SDS011;33219;47.410;9.730;2023-01-15T05:12:24;1.22;;;0.85;;
47481;SDS011;33219;47.410;9.730;2023-01-15T05:14:51;1.75;;;0.80;;
47481;SDS011;33219;47.410;9.730;2023-01-15T05:17:19;1.40;;;0.90;;
47481;SDS011;33219;47.410;9.730;2023-01-15T05:19:47;1.07;;;0.88;;
47481;SDS011;33219;47.410;9.730;2023-01-15T05:22:14;1.62;;;0.98;;
47481;SDS011;33219;47.410;9.730;2023-01-15T05:24:42;2.00;;;0.80;;
47481;SDS011;33219;47.410;9.730;2023-01-15T05:27:10;2.02;;;1.10;;
47481;SDS011;33219;47.410;9.730;2023-01-15T05:29:37;2.42;;;1.37;;
47481;SDS011;33219;47.410;9.730;2023-01-15T05:32:05;2.33;;;1.00;;
47481;SDS011;33219;47.410;9.730;2023-01-15T05:34:33;2.40;;;1.20;;
47481;SDS011;33219;47.410;9.730;2023-01-15T05:37:00;2.33;;;1.10;;
47481;SDS011;33219;47.410;9.730;2023-01-15T05:39:28;1.62;;;1.20;;
47481;SDS011;33219;47.410;9.730;2023-01-15T05:41:55;5.90;;;2.58;;
47481;SDS011;33219;47.410;9.730;2023-01-15T05:44:23;3.52;;;1.90;;
47481;SDS011;33219;47.410;9.730;2023-01-15T05:46:53;3.80;;;2.22;;
47481;SDS011;33219;47.410;9.730;2023-01-15T05:49:27;3.47;;;1.70;;
47481;SDS011;33219;47.410;9.730;2023-01-15T05:51:56;3.25;;;1.22;;
47481;SDS011;33219;47.410;9.730;2023-01-15T05:54:27;2.12;;;1.30;;
47481;SDS011;33219;47.410;9.730;2023-01-15T05:56:55;1.32;;;1.00;;
47481;SDS011;33219;47.410;9.730;2023-01-15T05:59:24;0.93;;;0.80;;
47481;SDS011;33219;47.410;9.730;2023-01-15T06:01:53;1.40;;;0.72;;
47481;SDS011;33219;47.410;9.730;2023-01-15T06:04:21;2.20;;;0.90;;
47481;SDS011;33219;47.410;9.730;2023-01-15T06:06:50;3.27;;;1.07;;
47481;SDS011;33219;47.410;9.730;2023-01-15T06:09:19;1.62;;;0.88;;
47481;SDS011;33219;47.410;9.730;2023-01-15T06:11:48;1.62;;;0.88;;
47481;SDS011;33219;47.410;9.730;2023-01-15T06:14:16;1.47;;;1.07;;
47481;SDS011;33219;47.410;9.730;2023-01-15T06:16:44;2.80;;;1.00;;
47481;SDS011;33219;47.410;9.730;2023-01-15T06:19:12;1.82;;;0.88;;
47481;SDS011;33219;47.410;9.730;2023-01-15T06:21:40;1.75;;;0.90;;
47481;SDS011;33219;47.410;9.730;2023-01-15T06:24:08;1.27;;;0.80;;
47481;SDS011;33219;47.410;9.730;2023-01-15T06:26:36;2.40;;;0.90;;
47481;SDS011;33219;47.410;9.730;2023-01-15T06:29:04;1.37;;;0.78;;
47481;SDS011;33219;47.410;9.730;2023-01-15T06:31:32;1.55;;;0.82;;
47481;SDS011;33219;47.410;9.730;2023-01-15T06:33:59;1.12;;;0.70;;
47481;SDS011;33219;47.410;9.730;2023-01-15T06:36:27;0.95;;;0.80;;
47481;SDS011;33219;47.410;9.730;2023-01-15T06:38:55;0.60;;;0.60;;
47481;SDS011;33219;47.410;9.730;2023-01-15T06:41:23;1.45;;;0.80;;
47481;SDS011;33219;47.410;9.730;2023-01-15T06:44:11;1.10;;;0.90;;
47481;SDS011;33219;47.410;9.730;2023-01-15T06:46:57;1.70;;;0.90;;
47481;SDS011;33219;47.410;9.730;2023-01-15T06:49:44;2.10;;;1.10;;
47481;SDS011;33219;47.410;9.730;2023-01-15T06:52:12;1.77;;;1.20;;
47481;SDS011;33219;47.410;9.730;2023-01-15T06:54:40;1.85;;;1.10;;
47481;SDS011;33219;47.410;9.730;2023-01-15T06:57:07;1.92;;;1.42;;
47481;SDS011;33219;47.410;9.730;2023-01-15T06:59:35;2.15;;;1.50;;
47481;SDS011;33219;47.410;9.730;2023-01-15T07:02:03;3.22;;;1.62;;
47481;SDS011;33219;47.410;9.730;2023-01-15T07:04:30;2.90;;;1.92;;
47481;SDS011;33219;47.410;9.730;2023-01-15T07:06:58;2.90;;;1.90;;
47481;SDS011;33219;47.410;9.730;2023-01-15T07:09:25;4.08;;;2.30;;
47481;SDS011;33219;47.410;9.730;2023-01-15T07:11:53;5.35;;;2.20;;
47481;SDS011;33219;47.410;9.730;2023-01-15T07:14:23;3.30;;;2.00;;
47481;SDS011;33219;47.410;9.730;2023-01-15T07:16:52;2.67;;;1.40;;
47481;SDS011;33219;47.410;9.730;2023-01-15T07:19:21;4.35;;;1.98;;
47481;SDS011;33219;47.410;9.730;2023-01-15T07:21:49;4.10;;;2.17;;
47481;SDS011;33219;47.410;9.730;2023-01-15T07:24:16;4.10;;;2.15;;
47481;SDS011;33219;47.410;9.730;2023-01-15T07:26:44;3.22;;;1.90;;
47481;SDS011;33219;47.410;9.730;2023-01-15T07:29:12;4.22;;;2.30;;
47481;SDS011;33219;47.410;9.730;2023-01-15T07:31:40;5.85;;;2.98;;
47481;SDS011;33219;47.410;9.730;2023-01-15T07:34:08;4.87;;;2.75;;
47481;SDS011;33219;47.410;9.730;2023-01-15T07:36:36;5.92;;;2.80;;
47481;SDS011;33219;47.410;9.730;2023-01-15T07:39:04;5.72;;;3.52;;
47481;SDS011;33219;47.410;9.730;2023-01-15T07:41:32;5.47;;;3.37;;
47481;SDS011;33219;47.410;9.730;2023-01-15T07:44:18;7.45;;;4.47;;
47481;SDS011;33219;47.410;9.730;2023-01-15T07:47:07;5.90;;;3.87;;
47481;SDS011;33219;47.410;9.730;2023-01-15T07:50:01;5.35;;;3.50;;
47481;SDS011;33219;47.410;9.730;2023-01-15T07:52:29;6.10;;;3.52;;
47481;SDS011;33219;47.410;9.730;2023-01-15T07:54:57;4.58;;;3.15;;
47481;SDS011;33219;47.410;9.730;2023-01-15T07:57:25;6.47;;;3.65;;
47481;SDS011;33219;47.410;9.730;2023-01-15T07:59:53;4.97;;;3.00;;
47481;SDS011;33219;47.410;9.730;2023-01-15T08:02:21;5.90;;;3.12;;
47481;SDS011;33219;47.410;9.730;2023-01-15T08:04:49;7.17;;;3.70;;
47481;SDS011;33219;47.410;9.730;2023-01-15T08:07:16;5.92;;;3.52;;
47481;SDS011;33219;47.410;9.730;2023-01-15T08:09:44;5.17;;;3.10;;
47481;SDS011;33219;47.410;9.730;2023-01-15T08:12:11;7.55;;;4.65;;
47481;SDS011;33219;47.410;9.730;2023-01-15T08:14:57;6.95;;;4.55;;
47481;SDS011;33219;47.410;9.730;2023-01-15T08:17:40;8.13;;;4.75;;
47481;SDS011;33219;47.410;9.730;2023-01-15T08:20:14;7.87;;;4.78;;
47481;SDS011;33219;47.410;9.730;2023-01-15T08:22:45;6.10;;;4.37;;
47481;SDS011;33219;47.410;9.730;2023-01-15T08:25:15;8.50;;;5.35;;
47481;SDS011;33219;47.410;9.730;2023-01-15T08:27:44;7.22;;;4.53;;
47481;SDS011;33219;47.410;9.730;2023-01-15T08:30:13;7.37;;;4.55;;
47481;SDS011;33219;47.410;9.730;2023-01-15T08:32:45;6.70;;;4.25;;
47481;SDS011;33219;47.410;9.730;2023-01-15T08:35:13;5.33;;;3.62;;
47481;SDS011;33219;47.410;9.730;2023-01-15T08:37:41;9.45;;;5.50;;
47481;SDS011;33219;47.410;9.730;2023-01-15T08:40:09;5.30;;;3.27;;
47481;SDS011;33219;47.410;9.730;2023-01-15T08:42:37;5.90;;;4.05;;
47481;SDS011;33219;47.410;9.730;2023-01-15T08:45:06;5.15;;;3.00;;
47481;SDS011;33219;47.410;9.730;2023-01-15T08:47:34;6.08;;;3.27;;
47481;SDS011;33219;47.410;9.730;2023-01-15T08:50:03;5.53;;;3.55;;
47481;SDS011;33219;47.410;9.730;2023-01-15T08:52:33;6.50;;;4.30;;
47481;SDS011;33219;47.410;9.730;2023-01-15T08:55:02;6.92;;;3.80;;
47481;SDS011;33219;47.410;9.730;2023-01-15T08:57:30;4.78;;;2.20;;
47481;SDS011;33219;47.410;9.730;2023-01-15T08:59:58;3.17;;;1.60;;
47481;SDS011;33219;47.410;9.730;2023-01-15T09:02:25;3.05;;;1.22;;
47481;SDS011;33219;47.410;9.730;2023-01-15T09:04:54;2.02;;;1.37;;
47481;SDS011;33219;47.410;9.730;2023-01-15T09:07:22;2.22;;;1.30;;
47481;SDS011;33219;47.410;9.730;2023-01-15T09:09:49;2.37;;;1.27;;
47481;SDS011;33219;47.410;9.730;2023-01-15T09:12:17;2.67;;;1.82;;
47481;SDS011;33219;47.410;9.730;2023-01-15T09:14:46;3.22;;;1.80;;
47481;SDS011;33219;47.410;9.730;2023-01-15T09:17:14;2.72;;;1.60;;
47481;SDS011;33219;47.410;9.730;2023-01-15T09:19:42;2.15;;;1.60;;
47481;SDS011;33219;47.410;9.730;2023-01-15T09:22:09;2.90;;;2.10;;
47481;SDS011;33219;47.410;9.730;2023-01-15T09:24:37;2.50;;;1.65;;
47481;SDS011;33219;47.410;9.730;2023-01-15T09:27:05;3.00;;;1.98;;
47481;SDS011;33219;47.410;9.730;2023-01-15T09:29:32;4.87;;;2.65;;
47481;SDS011;33219;47.410;9.730;2023-01-15T09:32:00;2.98;;;1.72;;
47481;SDS011;33219;47.410;9.730;2023-01-15T09:34:28;2.65;;;1.32;;
47481;SDS011;33219;47.410;9.730;2023-01-15T09:36:55;2.85;;;1.45;;
47481;SDS011;33219;47.410;9.730;2023-01-15T09:39:23;1.60;;;1.00;;
47481;SDS011;33219;47.410;9.730;2023-01-15T09:41:54;2.02;;;1.20;;
47481;SDS011;33219;47.410;9.730;2023-01-15T09:44:38;2.65;;;1.10;;
47481;SDS011;33219;47.410;9.730;2023-01-15T09:55:35;2.42;;;1.10;;
47481;SDS011;33219;47.410;9.730;2023-01-15T09:58:07;1.92;;;1.02;;
47481;SDS011;33219;47.410;9.730;2023-01-15T10:00:37;2.42;;;1.07;;
47481;SDS011;33219;47.410;9.730;2023-01-15T10:03:13;0.45;;;0.40;;
47481;SDS011;33219;47.410;9.730;2023-01-15T10:05:40;0.50;;;0.40;;
47481;SDS011;33219;47.410;9.730;2023-01-15T10:08:18;1.50;;;0.60;;
47481;SDS011;33219;47.410;9.730;2023-01-15T10:10:49;0.40;;;0.40;;
47481;SDS011;33219;47.410;9.730;2023-01-15T10:13:26;1.22;;;0.45;;
47481;SDS011;33219;47.410;9.730;2023-01-15T10:15:54;0.42;;;0.33;;
47481;SDS011;33219;47.410;9.730;2023-01-15T10:18:23;0.30;;;0.30;;
47481;SDS011;33219;47.410;9.730;2023-01-15T10:23:48;0.37;;;0.20;;
47481;SDS011;33219;47.410;9.730;2023-01-15T10:26:32;0.50;;;0.50;;
47481;SDS011;33219;47.410;9.730;2023-01-15T10:42:33;0.23;;;0.23;;
47481;SDS011;33219;47.410;9.730;2023-01-15T10:45:16;0.33;;;0.25;;
47481;SDS011;33219;47.410;9.730;2023-01-15T10:48:11;0.60;;;0.50;;
47481;SDS011;33219;47.410;9.730;2023-01-15T10:50:49;0.47;;;0.30;;
47481;SDS011;33219;47.410;9.730;2023-01-15T10:53:26;0.62;;;0.40;;
47481;SDS011;33219;47.410;9.730;2023-01-15T10:56:11;0.50;;;0.35;;
47481;SDS011;33219;47.410;9.730;2023-01-15T10:58:46;0.47;;;0.25;;
47481;SDS011;33219;47.410;9.730;2023-01-15T11:01:16;3.05;;;0.60;;
47481;SDS011;33219;47.410;9.730;2023-01-15T11:03:46;1.25;;;0.50;;
47481;SDS011;33219;47.410;9.730;2023-01-15T11:06:18;1.07;;;0.70;;
47481;SDS011;33219;47.410;9.730;2023-01-15T11:08:50;2.20;;;0.90;;
47481;SDS011;33219;47.410;9.730;2023-01-15T11:11:29;1.55;;;0.95;;
47481;SDS011;33219;47.410;9.730;2023-01-15T11:14:06;0.70;;;0.62;;
47481;SDS011;33219;47.410;9.730;2023-01-15T11:16:52;2.72;;;1.30;;
47481;SDS011;33219;47.410;9.730;2023-01-15T11:19:34;1.00;;;0.60;;
47481;SDS011;33219;47.410;9.730;2023-01-15T11:22:12;2.95;;;1.72;;
47481;SDS011;33219;47.410;9.730;2023-01-15T11:24:56;1.22;;;0.88;;
47481;SDS011;33219;47.410;9.730;2023-01-15T11:27:26;2.22;;;1.22;;
47481;SDS011;33219;47.410;9.730;2023-01-15T11:29:55;4.45;;;2.20;;
47481;SDS011;33219;47.410;9.730;2023-01-15T11:32:35;1.42;;;0.90;;
47481;SDS011;33219;47.410;9.730;2023-01-15T11:37:35;0.53;;;0.53;;
47481;SDS011;33219;47.410;9.730;2023-01-15T11:40:03;1.30;;;0.60;;
47481;SDS011;33219;47.410;9.730;2023-01-15T11:42:36;0.33;;;0.23;;
47481;SDS011;33219;47.410;9.730;2023-01-15T11:45:22;0.45;;;0.35;;
47481;SDS011;33219;47.410;9.730;2023-01-15T11:48:15;0.57;;;0.50;;
47481;SDS011;33219;47.410;9.730;2023-01-15T11:51:09;1.10;;;0.60;;
47481;SDS011;33219;47.410;9.730;2023-01-15T11:56:16;1.30;;;1.20;;
47481;SDS011;33219;47.410;9.730;2023-01-15T11:58:50;1.10;;;1.00;;
47481;SDS011;33219;47.410;9.730;2023-01-15T12:04:35;1.07;;;0.88;;
47481;SDS011;33219;47.410;9.730;2023-01-15T12:07:04;2.05;;;1.17;;
47481;SDS011;33219;47.410;9.730;2023-01-15T12:10:21;2.45;;;1.20;;
47481;SDS011;33219;47.410;9.730;2023-01-15T12:17:53;2.02;;;1.10;;
47481;SDS011;33219;47.410;9.730;2023-01-15T12:26:27;3.58;;;1.62;;
47481;SDS011;33219;47.410;9.730;2023-01-15T12:29:10;3.00;;;1.65;;
47481;SDS011;33219;47.410;9.730;2023-01-15T12:32:00;1.77;;;0.90;;
47481;SDS011;33219;47.410;9.730;2023-01-15T12:34:28;0.93;;;0.80;;
47481;SDS011;33219;47.410;9.730;2023-01-15T12:37:05;2.62;;;1.55;;
47481;SDS011;33219;47.410;9.730;2023-01-15T12:39:46;1.60;;;0.72;;
47481;SDS011;33219;47.410;9.730;2023-01-15T12:42:12;0.30;;;0.30;;
47481;SDS011;33219;47.410;9.730;2023-01-15T12:45:43;0.80;;;0.47;;
47481;SDS011;33219;47.410;9.730;2023-01-15T12:53:21;0.30;;;0.30;;
47481;SDS011;33219;47.410;9.730;2023-01-15T12:55:59;0.35;;;0.33;;
47481;SDS011;33219;47.410;9.730;2023-01-15T12:58:39;0.60;;;0.42;;
47481;SDS011;33219;47.410;9.730;2023-01-15T13:01:40;1.15;;;0.50;;
47481;SDS011;33219;47.410;9.730;2023-01-15T13:04:21;0.47;;;0.47;;
47481;SDS011;33219;47.410;9.730;2023-01-15T13:07:24;0.88;;;0.55;;
47481;SDS011;33219;47.410;9.730;2023-01-15T13:12:09;0.78;;;0.50;;
47481;SDS011;33219;47.410;9.730;2023-01-15T13:14:37;0.65;;;0.53;;
47481;SDS011;33219;47.410;9.730;2023-01-15T13:19:44;1.37;;;0.80;;
47481;SDS011;33219;47.410;9.730;2023-01-15T13:22:25;1.10;;;0.70;;
47481;SDS011;33219;47.410;9.730;2023-01-15T13:33:24;3.00;;;1.60;;
47481;SDS011;33219;47.410;9.730;2023-01-15T13:35:54;2.65;;;1.60;;
47481;SDS011;33219;47.410;9.730;2023-01-15T13:38:24;4.37;;;2.00;;
47481;SDS011;33219;47.410;9.730;2023-01-15T13:40:54;3.50;;;1.60;;
47481;SDS011;33219;47.410;9.730;2023-01-15T13:43:27;5.23;;;2.90;;
47481;SDS011;33219;47.410;9.730;2023-01-15T13:45:59;4.22;;;2.20;;
47481;SDS011;33219;47.410;9.730;2023-01-15T13:48:33;4.97;;;2.60;;
47481;SDS011;33219;47.410;9.730;2023-01-15T13:54:00;3.87;;;2.23;;
47481;SDS011;33219;47.410;9.730;2023-01-15T13:56:29;5.47;;;3.40;;
47481;SDS011;33219;47.410;9.730;2023-01-15T13:59:02;3.63;;;2.40;;
47481;SDS011;33219;47.410;9.730;2023-01-15T14:01:33;4.00;;;2.20;;
47481;SDS011;33219;47.410;9.730;2023-01-15T14:06:45;3.33;;;1.60;;
47481;SDS011;33219;47.410;9.730;2023-01-15T14:12:00;2.90;;;1.70;;
47481;SDS011;33219;47.410;9.730;2023-01-15T14:14:52;1.50;;;1.20;;
47481;SDS011;33219;47.410;9.730;2023-01-15T14:39:28;4.43;;;1.77;;
47481;SDS011;33219;47.410;9.730;2023-01-15T14:42:01;5.83;;;3.10;;
47481;SDS011;33219;47.410;9.730;2023-01-15T14:44:55;5.17;;;2.60;;
47481;SDS011;33219;47.410;9.730;2023-01-15T14:47:26;6.67;;;3.00;;
47481;SDS011;33219;47.410;9.730;2023-01-15T14:50:03;3.20;;;1.50;;
47481;SDS011;33219;47.410;9.730;2023-01-15T14:52:32;3.50;;;1.63;;
47481;SDS011;33219;47.410;9.730;2023-01-15T14:55:00;3.07;;;1.80;;
47481;SDS011;33219;47.410;9.730;2023-01-15T14:57:28;1.87;;;1.07;;
47481;SDS011;33219;47.410;9.730;2023-01-15T14:59:59;2.20;;;1.37;;
47481;SDS011;33219;47.410;9.730;2023-01-15T15:02:40;2.62;;;1.50;;
47481;SDS011;33219;47.410;9.730;2023-01-15T15:05:11;2.17;;;1.47;;
47481;SDS011;33219;47.410;9.730;2023-01-15T15:07:41;1.57;;;1.10;;
47481;SDS011;33219;47.410;9.730;2023-01-15T15:10:13;2.30;;;1.67;;
47481;SDS011;33219;47.410;9.730;2023-01-15T15:15:41;1.30;;;1.10;;
47481;SDS011;33219;47.410;9.730;2023-01-15T15:20:50;2.90;;;1.70;;
47481;SDS011;33219;47.410;9.730;2023-01-15T15:23:38;2.83;;;1.47;;
47481;SDS011;33219;47.410;9.730;2023-01-15T15:26:23;1.90;;;0.93;;
47481;SDS011;33219;47.410;9.730;2023-01-15T15:28:55;0.73;;;0.63;;
47481;SDS011;33219;47.410;9.730;2023-01-15T15:31:27;1.73;;;0.83;;
47481;SDS011;33219;47.410;9.730;2023-01-15T15:33:57;2.17;;;1.10;;
47481;SDS011;33219;47.410;9.730;2023-01-15T15:36:30;4.53;;;2.10;;
47481;SDS011;33219;47.410;9.730;2023-01-15T15:39:01;5.83;;;2.80;;
47481;SDS011;33219;47.410;9.730;2023-01-15T15:41:31;5.47;;;2.40;;
47481;SDS011;33219;47.410;9.730;2023-01-15T15:44:26;3.73;;;1.90;;
47481;SDS011;33219;47.410;9.730;2023-01-15T15:47:18;5.10;;;1.87;;
47481;SDS011;33219;47.410;9.730;2023-01-15T15:50:06;2.07;;;1.40;;
47481;SDS011;33219;47.410;9.730;2023-01-15T15:52:35;4.47;;;1.27;;
47481;SDS011;33219;47.410;9.730;2023-01-15T15:55:13;0.87;;;0.70;;
47481;SDS011;33219;47.410;9.730;2023-01-15T15:57:36;4.03;;;2.10;;
47481;SDS011;33219;47.410;9.730;2023-01-15T16:00:04;3.03;;;1.80;;
47481;SDS011;33219;47.410;9.730;2023-01-15T16:02:38;1.77;;;1.37;;
47481;SDS011;33219;47.410;9.730;2023-01-15T16:07:51;3.70;;;1.72;;
47481;SDS011;33219;47.410;9.730;2023-01-15T16:10:33;3.90;;;1.63;;
47481;SDS011;33219;47.410;9.730;2023-01-15T16:12:59;4.47;;;1.63;;
47481;SDS011;33219;47.410;9.730;2023-01-15T16:15:32;3.57;;;2.00;;
47481;SDS011;33219;47.410;9.730;2023-01-15T16:18:01;3.53;;;2.00;;
47481;SDS011;33219;47.410;9.730;2023-01-15T16:20:30;4.23;;;2.43;;
47481;SDS011;33219;47.410;9.730;2023-01-15T16:23:00;3.50;;;2.03;;
47481;SDS011;33219;47.410;9.730;2023-01-15T16:25:33;2.90;;;1.80;;
47481;SDS011;33219;47.410;9.730;2023-01-15T16:28:02;3.00;;;1.43;;
47481;SDS011;33219;47.410;9.730;2023-01-15T16:30:32;2.30;;;1.20;;
47481;SDS011;33219;47.410;9.730;2023-01-15T16:33:05;1.53;;;0.90;;
47481;SDS011;33219;47.410;9.730;2023-01-15T16:35:35;1.63;;;0.90;;
47481;SDS011;33219;47.410;9.730;2023-01-15T16:38:03;1.37;;;0.90;;
47481;SDS011;33219;47.410;9.730;2023-01-15T16:40:36;2.57;;;1.33;;
47481;SDS011;33219;47.410;9.730;2023-01-15T16:43:06;1.82;;;1.12;;
47481;SDS011;33219;47.410;9.730;2023-01-15T16:48:32;2.33;;;1.33;;
47481;SDS011;33219;47.410;9.730;2023-01-15T16:53:59;1.93;;;1.27;;
47481;SDS011;33219;47.410;9.730;2023-01-15T16:59:17;2.30;;;1.20;;
47481;SDS011;33219;47.410;9.730;2023-01-15T17:01:46;3.20;;;1.70;;
47481;SDS011;33219;47.410;9.730;2023-01-15T17:07:00;2.27;;;1.47;;
47481;SDS011;33219;47.410;9.730;2023-01-15T17:09:31;3.67;;;1.50;;
47481;SDS011;33219;47.410;9.730;2023-01-15T17:12:02;1.83;;;1.20;;
47481;SDS011;33219;47.410;9.730;2023-01-15T17:14:31;2.13;;;1.30;;
47481;SDS011;33219;47.410;9.730;2023-01-15T17:17:45;4.07;;;1.50;;
47481;SDS011;33219;47.410;9.730;2023-01-15T17:19:42;3.60;;;1.33;;
47481;SDS011;33219;47.410;9.730;2023-01-15T17:22:15;2.00;;;1.40;;
47481;SDS011;33219;47.410;9.730;2023-01-15T17:24:47;2.90;;;1.60;;
47481;SDS011;33219;47.410;9.730;2023-01-15T17:27:16;3.40;;;1.80;;
47481;SDS011;33219;47.410;9.730;2023-01-15T17:29:45;1.40;;;1.20;;
47481;SDS011;33219;47.410;9.730;2023-01-15T17:32:13;2.07;;;1.23;;
47481;SDS011;33219;47.410;9.730;2023-01-15T17:34:43;2.30;;;1.40;;
47481;SDS011;33219;47.410;9.730;2023-01-15T17:37:11;2.27;;;1.30;;